createdAt,value
2018-07-03T00:00:03.600Z,1.17
2018-07-03T00:02:31.081Z,0.87
2018-07-03T00:04:58.611Z,0.93
2018-07-03T00:07:26.216Z,1.27
2018-07-03T00:09:54.003Z,1.10
2018-07-03T00:12:21.669Z,1.73
2018-07-03T00:14:49.222Z,2.80
2018-07-03T00:17:17.882Z,1.80
2018-07-03T00:19:49.143Z,1.07
2018-07-03T00:22:17.278Z,0.60
2018-07-03T00:24:45.544Z,0.87
2018-07-03T00:27:13.616Z,1.13
2018-07-03T00:29:41.339Z,0.70
2018-07-03T00:32:08.991Z,1.00
2018-07-03T00:34:36.623Z,1.80
2018-07-03T00:37:05.342Z,1.90
2018-07-03T00:39:32.867Z,1.03
2018-07-03T00:42:00.391Z,0.70
2018-07-03T00:44:28.076Z,3.03
2018-07-03T00:46:55.747Z,0.57
2018-07-03T00:49:23.304Z,6.43
2018-07-03T00:51:50.983Z,0.60
2018-07-03T00:54:18.678Z,2.30
2018-07-03T00:56:46.407Z,2.47
2018-07-03T00:59:14.279Z,0.50
2018-07-03T01:01:42.068Z,1.23
2018-07-03T01:04:09.727Z,4.10
2018-07-03T01:06:37.565Z,0.53
2018-07-03T01:09:07.336Z,2.07
2018-07-03T01:11:35.735Z,0.73
2018-07-03T01:14:03.543Z,0.93
2018-07-03T01:16:31.152Z,0.53
2018-07-03T01:18:58.740Z,1.37
2018-07-03T01:21:26.501Z,2.63
2018-07-03T01:23:54.212Z,1.33
2018-07-03T01:26:22.138Z,0.83
2018-07-03T01:28:49.870Z,1.10
2018-07-03T01:31:17.584Z,1.13
2018-07-03T01:33:45.275Z,1.13
2018-07-03T01:36:13.273Z,1.63
2018-07-03T01:38:41.303Z,3.00
2018-07-03T01:41:09.187Z,1.63
2018-07-03T01:43:36.843Z,2.40
2018-07-03T01:46:04.578Z,3.87
2018-07-03T01:48:32.590Z,2.93
2018-07-03T01:51:00.601Z,2.90
2018-07-03T01:53:28.480Z,2.67
2018-07-03T01:55:56.474Z,1.23
2018-07-03T01:58:24.186Z,4.53
2018-07-03T02:00:51.949Z,4.23
2018-07-03T02:03:20.185Z,2.60
2018-07-03T02:05:48.197Z,0.90
2018-07-03T02:08:16.016Z,0.90
2018-07-03T02:10:43.683Z,1.70
2018-07-03T02:13:11.990Z,1.57
2018-07-03T02:15:39.971Z,1.87
2018-07-03T02:18:08.273Z,1.67
2018-07-03T02:20:36.155Z,1.27
2018-07-03T02:23:04.165Z,1.40
2018-07-03T02:25:32.196Z,1.77
2018-07-03T02:27:59.863Z,2.83
2018-07-03T02:30:28.090Z,3.27
2018-07-03T02:32:59.137Z,3.63
2018-07-03T02:35:26.891Z,2.40
2018-07-03T02:37:55.042Z,1.30
2018-07-03T02:40:23.211Z,1.63
2018-07-03T02:42:51.117Z,6.03
2018-07-03T02:45:19.163Z,1.37
2018-07-03T02:47:47.319Z,0.90
2018-07-03T02:50:15.537Z,4.00
2018-07-03T02:52:43.507Z,4.70
2018-07-03T02:55:11.513Z,1.70
2018-07-03T02:57:39.342Z,2.57
2018-07-03T03:00:07.445Z,1.67
2018-07-03T03:02:35.565Z,1.40
2018-07-03T03:05:03.524Z,2.50
2018-07-03T03:07:32.079Z,1.03
2018-07-03T03:10:00.112Z,3.57
2018-07-03T03:12:29.013Z,1.23
2018-07-03T03:14:59.019Z,2.10
2018-07-03T03:17:27.093Z,3.10
2018-07-03T03:19:55.128Z,3.10
2018-07-03T03:22:26.324Z,2.93
2018-07-03T03:24:54.373Z,3.10
2018-07-03T03:27:22.451Z,1.83
2018-07-03T03:29:50.422Z,5.77
2018-07-03T03:32:18.452Z,3.03
2018-07-03T03:34:46.317Z,2.77
2018-07-03T03:37:14.226Z,2.40
2018-07-03T03:39:45.969Z,5.43
2018-07-03T03:42:14.024Z,2.90
2018-07-03T03:44:42.225Z,5.30
2018-07-03T03:47:10.215Z,5.17
2018-07-03T03:49:38.247Z,5.13
2018-07-03T03:52:06.241Z,3.73
2018-07-03T03:54:34.020Z,2.63
2018-07-03T03:57:02.100Z,2.37
2018-07-03T03:59:30.375Z,2.10
2018-07-03T04:01:58.337Z,2.80
2018-07-03T04:04:25.947Z,2.53
2018-07-03T04:06:53.855Z,2.13
2018-07-03T04:09:21.706Z,3.90
2018-07-03T04:11:49.372Z,3.73
2018-07-03T04:14:16.927Z,2.43
2018-07-03T04:16:44.478Z,3.93
2018-07-03T04:19:11.943Z,3.70
2018-07-03T04:21:39.448Z,3.17
2018-07-03T04:24:07.063Z,4.20
2018-07-03T04:26:34.543Z,2.43
2018-07-03T04:29:02.103Z,2.53
2018-07-03T04:31:29.675Z,5.00
2018-07-03T04:33:57.138Z,4.87
2018-07-03T04:36:24.642Z,6.90
2018-07-03T04:38:52.082Z,4.57
2018-07-03T04:41:19.770Z,2.43
2018-07-03T04:43:47.267Z,4.00
2018-07-03T04:46:14.797Z,4.00
2018-07-03T04:48:42.247Z,3.67
2018-07-03T04:51:09.680Z,6.97
2018-07-03T04:53:37.198Z,3.03
2018-07-03T04:56:04.822Z,2.33
2018-07-03T04:58:32.266Z,2.50
2018-07-03T05:01:00.052Z,4.60
2018-07-03T05:03:27.596Z,4.90
2018-07-03T05:05:55.075Z,6.57
2018-07-03T05:08:22.550Z,4.10
2018-07-03T05:10:50.046Z,2.53
2018-07-03T05:13:17.697Z,5.10
2018-07-03T05:15:45.191Z,5.43
2018-07-03T05:18:12.751Z,3.77
2018-07-03T05:20:40.321Z,3.77
2018-07-03T05:23:07.783Z,4.10
2018-07-03T05:25:35.237Z,7.20
2018-07-03T05:28:02.733Z,6.07
2018-07-03T05:30:30.254Z,4.50
2018-07-03T05:32:57.723Z,6.17
2018-07-03T05:35:25.263Z,6.90
2018-07-03T05:37:52.971Z,8.10
2018-07-03T05:40:20.468Z,7.13
2018-07-03T05:42:48.005Z,7.03
2018-07-03T05:45:15.460Z,8.23
2018-07-03T05:47:42.999Z,4.87
2018-07-03T05:50:10.483Z,6.20
2018-07-03T05:52:37.999Z,5.00
2018-07-03T05:55:05.479Z,6.50
2018-07-03T05:57:33.063Z,6.27
2018-07-03T06:00:00.614Z,7.37
2018-07-03T06:02:28.197Z,4.83
2018-07-03T06:04:55.686Z,8.43
2018-07-03T06:07:23.217Z,5.67
2018-07-03T06:09:50.720Z,6.47
2018-07-03T06:12:18.211Z,8.60
2018-07-03T06:14:45.709Z,4.00
2018-07-03T06:17:13.251Z,8.50
2018-07-03T06:19:40.804Z,4.93
2018-07-03T06:22:08.262Z,6.33
2018-07-03T06:24:35.772Z,5.23
2018-07-03T06:27:03.328Z,5.33
2018-07-03T06:29:30.839Z,6.10
2018-07-03T06:33:10.128Z,3.43
2018-07-03T06:35:37.654Z,2.93
2018-07-03T06:38:05.155Z,3.03
2018-07-03T06:40:32.690Z,3.73
2018-07-03T06:43:00.212Z,2.67
2018-07-03T06:45:27.728Z,3.10
2018-07-03T06:47:55.743Z,3.07
2018-07-03T06:50:23.256Z,4.17
2018-07-03T06:52:50.733Z,3.60
2018-07-03T06:55:18.259Z,8.53
2018-07-03T06:57:45.796Z,3.97
2018-07-03T07:00:13.268Z,4.60
2018-07-03T07:02:40.788Z,2.67
2018-07-03T07:05:08.272Z,1.60
2018-07-03T07:07:35.797Z,4.30
2018-07-03T07:10:03.675Z,3.23
2018-07-03T07:12:31.199Z,1.33
2018-07-03T07:14:58.695Z,4.40
2018-07-03T07:17:26.276Z,2.73
2018-07-03T07:19:53.723Z,1.97
2018-07-03T07:22:21.172Z,2.80
2018-07-03T07:24:48.691Z,3.60
2018-07-03T07:27:16.249Z,2.57
2018-07-03T07:29:43.779Z,3.33
2018-07-03T07:32:11.283Z,1.10
2018-07-03T07:34:38.735Z,5.83
2018-07-03T07:37:06.447Z,4.20
2018-07-03T07:39:33.904Z,4.80
2018-07-03T07:42:01.345Z,6.60
2018-07-03T07:44:28.871Z,4.13
2018-07-03T07:46:56.468Z,4.27
2018-07-03T07:49:23.978Z,3.90
2018-07-03T07:51:51.467Z,4.33
2018-07-03T07:54:18.936Z,2.40
2018-07-03T07:56:46.510Z,2.27
2018-07-03T07:59:14.011Z,5.37
2018-07-03T08:01:41.523Z,2.77
2018-07-03T08:04:08.972Z,3.97
2018-07-03T08:06:36.498Z,4.60
2018-07-03T08:09:07.188Z,2.40
2018-07-03T08:11:34.702Z,1.80
2018-07-03T08:14:02.602Z,2.90
2018-07-03T08:16:30.133Z,2.20
2018-07-03T08:18:57.673Z,1.87
2018-07-03T08:21:25.204Z,2.93
2018-07-03T08:23:52.691Z,4.60
2018-07-03T08:26:20.210Z,6.27
2018-07-03T08:28:47.730Z,4.70
2018-07-03T08:31:15.498Z,7.10
2018-07-03T08:33:42.979Z,6.87
2018-07-03T08:36:10.507Z,4.87
2018-07-03T08:38:37.983Z,6.50
2018-07-03T08:41:05.799Z,5.93
2018-07-03T08:43:33.341Z,8.13
2018-07-03T08:46:00.843Z,7.13
2018-07-03T08:48:28.364Z,5.50
2018-07-03T08:50:55.835Z,2.53
2018-07-03T08:53:23.319Z,2.80
2018-07-03T08:55:50.815Z,2.53
2018-07-03T08:58:18.314Z,2.47
2018-07-03T09:00:45.767Z,3.10
2018-07-03T09:03:13.335Z,4.30
2018-07-03T09:05:40.788Z,3.83
2018-07-03T09:08:08.462Z,2.00
2018-07-03T09:10:35.970Z,3.27
2018-07-03T09:13:03.498Z,2.67
2018-07-03T09:15:30.966Z,3.30
2018-07-03T09:17:58.446Z,6.33
2018-07-03T09:20:25.988Z,3.43
2018-07-03T09:22:53.516Z,2.60
2018-07-03T09:25:21.018Z,3.40
2018-07-03T09:27:48.524Z,6.70
2018-07-03T09:30:15.988Z,4.27
2018-07-03T09:32:43.699Z,2.30
2018-07-03T09:35:11.227Z,9.10
2018-07-03T09:37:38.731Z,16.97
2018-07-03T09:40:06.212Z,7.90
2018-07-03T09:42:33.723Z,2.80
2018-07-03T09:45:01.279Z,2.53
2018-07-03T09:47:28.802Z,2.60
2018-07-03T09:49:56.556Z,3.23
2018-07-03T09:52:24.018Z,3.50
2018-07-03T09:54:51.544Z,1.77
2018-07-03T09:57:19.142Z,2.13
2018-07-03T09:59:46.993Z,3.20
2018-07-03T10:02:14.690Z,4.27
2018-07-03T10:04:42.216Z,3.77
2018-07-03T10:07:09.686Z,2.50
2018-07-03T10:09:37.195Z,8.33
2018-07-03T10:12:04.671Z,5.43
2018-07-03T10:14:32.148Z,1.73
2018-07-03T10:16:59.646Z,1.10
2018-07-03T10:19:27.179Z,2.73
2018-07-03T10:21:54.645Z,4.40
2018-07-03T10:24:22.149Z,5.30
2018-07-03T10:26:49.650Z,4.03
2018-07-03T10:29:17.210Z,4.37
2018-07-03T10:31:44.665Z,1.50
2018-07-03T10:34:12.477Z,2.07
2018-07-03T10:36:39.936Z,4.63
2018-07-03T10:39:09.057Z,2.07
2018-07-03T10:41:36.664Z,3.03
2018-07-03T10:44:04.165Z,2.87
2018-07-03T10:46:31.722Z,3.57
2018-07-03T10:48:59.165Z,6.00
2018-07-03T10:51:26.655Z,2.03
2018-07-03T10:53:54.252Z,4.40
2018-07-03T10:56:21.959Z,2.50
2018-07-03T10:58:49.515Z,3.13
2018-07-03T11:01:16.979Z,1.90
2018-07-03T11:03:44.555Z,3.03
2018-07-03T11:06:12.035Z,2.20
2018-07-03T11:08:39.503Z,2.30
2018-07-03T11:11:06.983Z,3.03
2018-07-03T11:13:34.518Z,1.83
2018-07-03T11:16:01.977Z,3.67
2018-07-03T11:18:29.593Z,2.87
2018-07-03T11:20:57.068Z,2.27
2018-07-03T11:23:24.695Z,2.47
2018-07-03T11:25:52.311Z,1.93
2018-07-03T11:28:19.783Z,9.67
2018-07-03T11:30:47.303Z,4.63
2018-07-03T11:33:14.791Z,2.20
2018-07-03T11:35:42.331Z,1.07
2018-07-03T11:38:09.892Z,5.10
2018-07-03T11:40:37.392Z,3.77
2018-07-03T11:43:04.884Z,5.43
2018-07-03T11:45:32.592Z,3.50
2018-07-03T11:48:00.056Z,2.60
2018-07-03T11:50:27.501Z,2.17
2018-07-03T11:52:55.115Z,6.30
2018-07-03T11:55:22.570Z,2.53
2018-07-03T11:57:50.065Z,2.73
2018-07-03T12:00:18.133Z,2.30
2018-07-03T12:02:45.628Z,2.20
2018-07-03T12:05:13.136Z,3.40
2018-07-03T12:07:40.627Z,3.43
2018-07-03T12:10:08.066Z,4.03
2018-07-03T12:12:35.578Z,1.80
2018-07-03T12:15:03.084Z,3.13
2018-07-03T12:17:30.586Z,2.83
2018-07-03T12:19:58.075Z,5.30
2018-07-03T12:22:25.531Z,2.43
2018-07-03T12:24:53.064Z,1.90
2018-07-03T12:27:20.562Z,2.13
2018-07-03T12:29:48.067Z,3.30
2018-07-03T12:32:15.593Z,2.97
2018-07-03T12:34:43.206Z,1.40
2018-07-03T12:37:10.668Z,3.63
2018-07-03T12:39:38.103Z,4.83
2018-07-03T12:42:05.910Z,2.20
2018-07-03T12:44:33.416Z,2.10
2018-07-03T12:47:00.876Z,3.20
2018-07-03T12:49:28.391Z,2.93
2018-07-03T12:51:55.874Z,4.50
2018-07-03T12:54:23.383Z,3.03
2018-07-03T12:56:51.005Z,2.10
2018-07-03T12:59:18.487Z,2.63
2018-07-03T13:01:46.044Z,1.10
2018-07-03T13:04:13.599Z,2.80
2018-07-03T13:06:41.096Z,3.07
2018-07-03T13:09:09.980Z,1.30
2018-07-03T13:11:37.486Z,2.07
2018-07-03T13:14:05.128Z,3.33
2018-07-03T13:16:32.648Z,1.87
2018-07-03T13:19:00.124Z,3.90
2018-07-03T13:21:27.612Z,4.30
2018-07-03T13:23:55.060Z,2.83
2018-07-03T13:26:22.550Z,1.03
2018-07-03T13:28:49.982Z,4.53
2018-07-03T13:31:17.472Z,1.67
2018-07-03T13:33:44.991Z,2.50
2018-07-03T13:36:12.441Z,3.70
2018-07-03T13:38:40.080Z,4.40
2018-07-03T13:41:07.821Z,4.37
2018-07-03T13:43:35.311Z,4.50
2018-07-03T13:46:02.808Z,3.07
2018-07-03T13:48:30.397Z,8.60
2018-07-03T13:50:57.832Z,11.97
2018-07-03T13:53:25.443Z,6.77
2018-07-03T13:55:53.055Z,3.40
2018-07-03T13:58:20.582Z,10.90
2018-07-03T14:00:48.252Z,14.03
2018-07-03T14:03:15.732Z,6.50
2018-07-03T14:05:43.244Z,11.50
2018-07-03T14:08:10.787Z,7.97
2018-07-03T14:10:38.388Z,10.47
2018-07-03T14:13:05.904Z,4.93
2018-07-03T14:15:33.427Z,9.20
2018-07-03T14:18:00.933Z,8.47
2018-07-03T14:20:28.426Z,15.17
2018-07-03T14:22:55.926Z,6.60
2018-07-03T14:25:23.414Z,8.33
2018-07-03T14:27:50.965Z,10.27
2018-07-03T14:30:18.649Z,8.97
2018-07-03T14:32:46.171Z,8.77
2018-07-03T14:35:13.665Z,7.50
2018-07-03T14:37:41.133Z,8.43
2018-07-03T14:40:08.653Z,7.00
2018-07-03T14:42:36.312Z,8.73
2018-07-03T14:45:04.348Z,15.27
2018-07-03T14:47:31.906Z,10.93
2018-07-03T14:49:59.463Z,7.30
2018-07-03T14:52:26.964Z,12.23
2018-07-03T14:54:54.492Z,5.73
2018-07-03T14:57:22.053Z,4.33
2018-07-03T14:59:49.547Z,12.47
2018-07-03T15:02:17.056Z,10.30
2018-07-03T15:04:44.623Z,10.93
2018-07-03T15:07:12.153Z,7.10
2018-07-03T15:09:39.662Z,14.20
2018-07-03T15:12:07.273Z,13.73
2018-07-03T15:14:34.799Z,5.70
2018-07-03T15:17:02.299Z,7.73
2018-07-03T15:19:35.608Z,12.03
2018-07-03T15:22:03.168Z,8.60
2018-07-03T15:24:30.643Z,9.97
2018-07-03T15:26:58.224Z,12.27
2018-07-03T15:29:25.780Z,10.60
2018-07-03T15:31:53.354Z,8.40
2018-07-03T15:34:20.908Z,6.30
2018-07-03T15:36:48.447Z,12.07
2018-07-03T15:39:15.987Z,11.67
2018-07-03T15:41:43.519Z,18.17
2018-07-03T15:44:22.700Z,11.50
2018-07-03T15:46:50.127Z,8.70
2018-07-03T15:49:17.655Z,9.27
2018-07-03T15:51:45.724Z,11.47
2018-07-03T15:54:13.272Z,7.77
2018-07-03T15:56:40.816Z,16.67
2018-07-03T15:59:08.328Z,14.00
2018-07-03T16:01:35.833Z,10.00
2018-07-03T16:04:14.916Z,11.10
2018-07-03T16:07:21.672Z,7.37
2018-07-03T16:09:49.225Z,9.20
2018-07-03T16:12:16.771Z,10.13
2018-07-03T16:14:44.238Z,10.13
2018-07-03T16:17:11.711Z,10.27
2018-07-03T16:19:44.804Z,9.53
2018-07-03T16:22:12.314Z,17.67
2018-07-03T16:24:39.934Z,14.97
2018-07-03T16:27:07.562Z,7.17
2018-07-03T16:29:35.059Z,12.20
2018-07-03T16:32:02.624Z,11.10
2018-07-03T16:34:30.117Z,13.37
2018-07-03T16:36:57.722Z,11.23
2018-07-03T16:39:25.208Z,7.83
2018-07-03T16:41:53.078Z,11.50
2018-07-03T16:44:20.603Z,16.50
2018-07-03T16:46:48.096Z,9.50
2018-07-03T16:49:15.610Z,8.50
2018-07-03T16:51:43.225Z,12.50
2018-07-03T16:54:10.721Z,10.53
2018-07-03T16:56:38.243Z,16.43
2018-07-03T16:59:05.753Z,10.27
2018-07-03T17:01:33.267Z,10.50
2018-07-03T17:04:00.806Z,11.17
2018-07-03T17:06:28.340Z,12.20
2018-07-03T17:08:55.862Z,14.23
2018-07-03T17:11:23.371Z,12.13
2018-07-03T17:13:50.965Z,9.77
2018-07-03T17:16:18.427Z,9.93
2018-07-03T17:18:52.113Z,12.13
2018-07-03T17:21:19.591Z,8.53
2018-07-03T17:23:47.152Z,9.10
2018-07-03T17:26:14.688Z,12.03
2018-07-03T17:28:42.182Z,8.83
2018-07-03T17:31:09.646Z,9.57
2018-07-03T17:33:37.179Z,13.73
2018-07-03T17:36:04.760Z,8.97
2018-07-03T17:38:32.296Z,9.70
2018-07-03T17:41:11.314Z,9.57
2018-07-03T17:44:07.850Z,10.70
2018-07-03T17:46:35.259Z,16.97
2018-07-03T17:49:02.839Z,12.47
2018-07-03T17:51:30.550Z,15.90
2018-07-03T17:53:58.057Z,13.77
2018-07-03T17:56:25.616Z,19.37
2018-07-03T17:58:53.143Z,14.57
2018-07-03T18:01:20.966Z,11.73
2018-07-03T18:03:48.687Z,13.47
2018-07-03T18:06:16.398Z,11.83
2018-07-03T18:08:44.063Z,11.03
2018-07-03T18:11:11.623Z,8.13
2018-07-03T18:13:39.101Z,11.03
2018-07-03T18:16:06.795Z,10.60
2018-07-03T18:18:34.317Z,10.60
2018-07-03T18:21:01.835Z,13.10
2018-07-03T18:23:29.355Z,10.97
2018-07-03T18:25:56.955Z,8.90
2018-07-03T18:28:24.473Z,11.00
2018-07-03T18:30:52.339Z,15.40
2018-07-03T18:33:19.744Z,7.97
2018-07-03T18:35:47.187Z,9.37
2018-07-03T18:38:14.684Z,11.33
2018-07-03T18:40:42.275Z,9.67
2018-07-03T18:43:09.923Z,14.40
2018-07-03T18:45:37.555Z,5.20
2018-07-03T18:48:05.072Z,9.53
2018-07-03T18:50:32.659Z,4.33
2018-07-03T18:53:00.241Z,6.17
2018-07-03T18:55:27.759Z,6.97
2018-07-03T18:57:55.250Z,3.93
2018-07-03T19:00:22.802Z,3.80
2018-07-03T19:02:50.252Z,4.60
2018-07-03T19:05:18.119Z,4.30
2018-07-03T19:07:45.862Z,4.50
2018-07-03T19:10:13.377Z,4.27
2018-07-03T19:12:40.896Z,4.07
2018-07-03T19:15:08.589Z,3.23
2018-07-03T19:17:36.238Z,5.97
2018-07-03T19:20:03.940Z,4.50
2018-07-03T19:22:31.631Z,4.83
2018-07-03T19:24:59.305Z,6.37
2018-07-03T19:27:26.829Z,4.27
2018-07-03T19:29:54.354Z,3.93
2018-07-03T19:32:21.917Z,5.30
2018-07-03T19:34:49.414Z,5.50
2018-07-03T19:37:16.945Z,6.17
2018-07-03T19:39:44.585Z,5.80
2018-07-03T19:42:12.287Z,7.37
2018-07-03T19:44:39.824Z,2.67
2018-07-03T19:47:07.531Z,8.50
2018-07-03T19:49:35.242Z,6.33
2018-07-03T19:52:02.951Z,3.50
2018-07-03T19:54:30.528Z,7.73
2018-07-03T19:56:58.199Z,6.23
2018-07-03T19:59:25.997Z,6.83
2018-07-03T20:01:59.847Z,22.53
2018-07-03T20:04:27.655Z,4.83
2018-07-03T20:06:55.590Z,5.50
2018-07-03T20:09:23.452Z,3.63
2018-07-03T20:11:51.276Z,10.10
2018-07-03T20:14:19.271Z,6.30
2018-07-03T20:16:46.980Z,7.13
2018-07-03T20:19:15.766Z,10.47
2018-07-03T20:21:44.998Z,6.87
2018-07-03T20:24:13.269Z,5.77
2018-07-03T20:26:41.444Z,7.80
2018-07-03T20:29:09.967Z,8.67
2018-07-03T20:31:38.080Z,9.70
2018-07-03T20:34:05.888Z,6.87
2018-07-03T20:36:33.583Z,9.97
2018-07-03T20:39:01.471Z,9.83
2018-07-03T20:41:29.462Z,6.13
2018-07-03T20:43:58.664Z,6.50
2018-07-03T20:46:27.350Z,10.43
2018-07-03T20:48:55.946Z,9.77
2018-07-03T20:51:24.516Z,7.80
2018-07-03T20:53:53.206Z,10.87
2018-07-03T20:56:21.866Z,7.40
2018-07-03T20:58:49.594Z,6.50
2018-07-03T21:01:18.650Z,12.87
2018-07-03T21:03:46.860Z,8.20
2018-07-03T21:06:15.357Z,8.27
2018-07-03T21:08:43.286Z,9.80
2018-07-03T21:11:11.886Z,6.30
2018-07-03T21:13:39.585Z,7.40
2018-07-03T21:16:07.644Z,8.47
2018-07-03T21:18:35.526Z,13.37
2018-07-03T21:21:04.042Z,10.37
2018-07-03T21:23:32.523Z,11.67
2018-07-03T21:26:00.617Z,8.97
2018-07-03T21:28:28.449Z,7.93
2018-07-03T21:30:56.022Z,6.23
2018-07-03T21:33:23.699Z,7.17
2018-07-03T21:35:51.246Z,11.43
2018-07-03T21:38:18.764Z,9.03
2018-07-03T21:40:46.580Z,8.33
2018-07-03T21:43:14.118Z,14.40
2018-07-03T21:45:41.607Z,11.17
2018-07-03T21:48:09.128Z,7.10
2018-07-03T21:50:36.697Z,7.27
2018-07-03T21:53:04.209Z,8.07
2018-07-03T21:55:31.688Z,7.53
2018-07-03T21:57:59.168Z,6.90
2018-07-03T22:00:37.891Z,8.30
2018-07-03T22:03:06.976Z,10.30
2018-07-03T22:05:35.895Z,12.40
2018-07-03T22:08:03.960Z,7.50
2018-07-03T22:10:32.048Z,12.47
2018-07-03T22:12:59.754Z,6.37
2018-07-03T22:15:27.301Z,6.50
2018-07-03T22:17:54.742Z,8.83
2018-07-03T22:20:22.323Z,8.90
2018-07-03T22:22:49.943Z,7.97
2018-07-03T22:25:17.513Z,11.93
2018-07-03T22:27:45.120Z,11.23
2018-07-03T22:30:12.631Z,13.87
2018-07-03T22:32:40.194Z,8.27
2018-07-03T22:35:07.794Z,15.17
2018-07-03T22:37:35.521Z,7.03
2018-07-03T22:40:03.412Z,9.97
2018-07-03T22:42:31.484Z,7.80
2018-07-03T22:44:59.538Z,14.33
2018-07-03T22:47:27.114Z,11.47
2018-07-03T22:49:54.934Z,6.77
2018-07-03T22:52:23.004Z,12.97
2018-07-03T22:54:50.870Z,5.80
2018-07-03T22:57:19.094Z,8.07
2018-07-03T22:59:57.521Z,17.37
2018-07-03T23:02:25.824Z,12.87
2018-07-03T23:04:53.997Z,9.77
2018-07-03T23:07:21.699Z,8.07
2018-07-03T23:09:49.559Z,13.03
2018-07-03T23:12:18.159Z,13.97
2018-07-03T23:14:45.975Z,13.80
2018-07-03T23:17:14.880Z,12.27
2018-07-03T23:19:42.816Z,12.57
2018-07-03T23:22:11.337Z,8.87
2018-07-03T23:24:39.420Z,10.57
2018-07-03T23:27:07.508Z,14.50
2018-07-03T23:29:35.755Z,11.47
2018-07-03T23:32:03.465Z,9.27
2018-07-03T23:34:31.682Z,9.63
2018-07-03T23:37:02.580Z,13.47
2018-07-03T23:39:30.248Z,10.77
2018-07-03T23:41:59.163Z,10.87
2018-07-03T23:44:27.019Z,9.20
2018-07-03T23:47:06.474Z,10.30
2018-07-03T23:49:51.969Z,13.70
2018-07-03T23:52:37.520Z,14.43
2018-07-03T23:55:22.886Z,9.23
2018-07-03T23:58:08.355Z,11.37
